createdAt,value
2017-05-08T00:00:20.447Z,29.8
2017-05-08T00:01:20.538Z,29.8
2017-05-08T00:02:21.896Z,29.7
2017-05-08T00:03:21.965Z,29.8
2017-05-08T00:04:21.975Z,29.8
2017-05-08T00:05:20.604Z,29.7
2017-05-08T00:06:20.662Z,29.8
2017-05-08T00:07:22.454Z,29.8
2017-05-08T00:08:22.305Z,29.8
2017-05-08T00:09:20.843Z,29.7
2017-05-08T00:10:20.744Z,29.7
2017-05-08T00:11:20.950Z,29.8
2017-05-08T00:12:21.002Z,29.8
2017-05-08T00:13:21.202Z,29.8
2017-05-08T00:14:22.580Z,29.7
2017-05-08T00:15:22.766Z,29.7
2017-05-08T00:16:21.102Z,29.7
2017-05-08T00:17:21.327Z,29.7
2017-05-08T00:18:21.409Z,29.7
2017-05-08T00:19:23.247Z,29.7
2017-05-08T00:20:21.327Z,29.7
2017-05-08T00:21:23.127Z,29.7
2017-05-08T00:22:21.482Z,29.7
2017-05-08T00:23:23.197Z,29.7
2017-05-08T00:24:21.685Z,29.7
2017-05-08T00:25:22.008Z,29.7
2017-05-08T00:26:21.743Z,29.7
2017-05-08T00:27:21.641Z,29.7
2017-05-08T00:28:23.360Z,29.7
2017-05-08T00:29:23.489Z,29.7
2017-05-08T00:30:23.467Z,29.7
2017-05-08T00:31:22.265Z,29.7
2017-05-08T00:32:22.039Z,29.7
2017-05-08T00:33:23.513Z,29.7
2017-05-08T00:34:22.059Z,29.7
2017-05-08T00:35:23.682Z,29.7
2017-05-08T00:36:22.019Z,29.7
2017-05-08T00:37:22.354Z,29.7
2017-05-08T00:38:22.163Z,29.7
2017-05-08T00:39:23.942Z,29.7
2017-05-08T00:40:22.425Z,29.7
2017-05-08T00:41:22.419Z,29.7
2017-05-08T00:42:22.435Z,29.7
2017-05-08T00:43:22.861Z,29.7
2017-05-08T00:44:22.494Z,29.7
2017-05-08T00:45:24.269Z,29.7
2017-05-08T00:46:24.167Z,29.7
2017-05-08T00:47:24.253Z,29.7
2017-05-08T00:48:24.417Z,29.7
2017-05-08T00:49:23.026Z,29.7
2017-05-08T00:50:23.527Z,29.7
2017-05-08T00:51:23.005Z,29.7
2017-05-08T00:52:23.082Z,29.7
2017-05-08T00:53:24.740Z,29.7
2017-05-08T00:54:24.203Z,29.6
2017-05-08T00:55:24.214Z,29.7
2017-05-08T00:56:24.922Z,29.7
2017-05-08T00:57:23.437Z,29.7
2017-05-08T00:58:23.517Z,29.7
2017-05-08T00:59:25.175Z,29.7
2017-05-08T01:00:25.059Z,29.7
2017-05-08T01:01:23.912Z,29.7
2017-05-08T01:02:23.538Z,29.6
2017-05-08T01:03:23.736Z,29.6
2017-05-08T01:04:23.764Z,29.6
2017-05-08T01:05:23.733Z,29.6
2017-05-08T01:06:23.741Z,29.6
2017-05-08T01:07:24.013Z,29.6
2017-05-08T01:08:23.917Z,29.6
2017-05-08T01:09:23.865Z,29.6
2017-05-08T01:10:23.858Z,29.6
2017-05-08T01:11:25.584Z,29.6
2017-05-08T01:12:25.607Z,29.6
2017-05-08T01:13:24.333Z,29.6
2017-05-08T01:14:24.286Z,29.6
2017-05-08T01:15:24.193Z,29.6
2017-05-08T01:16:24.397Z,29.6
2017-05-08T01:17:26.011Z,29.6
2017-05-08T01:18:24.492Z,29.6
2017-05-08T01:19:24.709Z,29.6
2017-05-08T01:20:24.624Z,29.6
2017-05-08T01:21:24.691Z,29.6
2017-05-08T01:22:26.222Z,29.6
2017-05-08T01:23:24.793Z,29.6
2017-05-08T01:24:24.716Z,29.6
2017-05-08T01:25:25.887Z,29.6
2017-05-08T01:26:24.949Z,29.6
2017-05-08T01:27:26.633Z,29.6
2017-05-08T01:28:25.025Z,29.6
2017-05-08T01:29:24.900Z,29.6
2017-05-08T01:30:25.034Z,29.6
2017-05-08T01:31:26.996Z,29.6
2017-05-08T01:32:26.795Z,29.6
2017-05-08T01:33:27.433Z,29.6
2017-05-08T01:34:25.298Z,29.6
2017-05-08T01:35:26.877Z,29.6
2017-05-08T01:36:25.218Z,29.6
2017-05-08T01:37:25.721Z,29.6
2017-05-08T01:38:27.029Z,29.6
2017-05-08T01:39:25.404Z,29.6
2017-05-08T01:40:27.192Z,29.6
2017-05-08T01:41:25.485Z,29.6
2017-05-08T01:42:27.119Z,29.6
2017-05-08T01:43:26.046Z,29.6
2017-05-08T01:44:25.695Z,29.6
2017-05-08T01:45:27.289Z,29.6
2017-05-08T01:46:27.357Z,29.6
2017-05-08T01:47:27.439Z,29.6
2017-05-08T01:48:27.642Z,29.6
2017-05-08T01:49:26.417Z,29.6
2017-05-08T01:50:27.774Z,29.6
2017-05-08T01:51:26.104Z,29.6
2017-05-08T01:52:27.902Z,29.6
2017-05-08T01:53:27.960Z,29.6
2017-05-08T01:54:28.032Z,29.6
2017-05-08T01:55:26.799Z,29.6
2017-05-08T01:56:26.590Z,29.5
2017-05-08T01:57:26.492Z,29.6
2017-05-08T01:58:28.327Z,29.5
2017-05-08T01:59:26.626Z,29.6
2017-05-08T02:00:28.404Z,29.6
2017-05-08T02:01:27.021Z,29.6
2017-05-08T02:02:28.999Z,29.6
2017-05-08T02:03:26.999Z,29.6
2017-05-08T02:04:28.400Z,29.6
2017-05-08T02:05:28.582Z,29.6
2017-05-08T02:06:28.637Z,29.6
2017-05-08T02:07:28.959Z,29.6
2017-05-08T02:08:28.782Z,29.5
2017-05-08T02:09:27.097Z,29.6
2017-05-08T02:10:28.883Z,29.6
2017-05-08T02:11:27.185Z,29.6
2017-05-08T02:12:28.964Z,29.5
2017-05-08T02:13:27.610Z,29.6
2017-05-08T02:14:27.436Z,29.5
2017-05-08T02:15:27.534Z,29.5
2017-05-08T02:16:29.024Z,29.6
2017-05-08T02:17:29.186Z,29.5
2017-05-08T02:18:29.207Z,29.6
2017-05-08T02:19:29.398Z,29.5
2017-05-08T02:20:27.785Z,29.5
2017-05-08T02:21:29.964Z,29.5
2017-05-08T02:22:27.792Z,29.5
2017-05-08T02:23:28.394Z,29.5
2017-05-08T02:24:29.607Z,29.5
2017-05-08T02:25:28.193Z,29.5
2017-05-08T02:26:29.554Z,29.6
2017-05-08T02:27:29.685Z,29.5
2017-05-08T02:28:28.031Z,29.5
2017-05-08T02:29:29.775Z,29.5
2017-05-08T02:30:29.687Z,29.5
2017-05-08T02:31:30.112Z,29.5
2017-05-08T02:32:29.715Z,29.5
2017-05-08T02:33:29.900Z,29.5
2017-05-08T02:34:29.814Z,29.5
2017-05-08T02:35:29.904Z,29.5
2017-05-08T02:36:30.045Z,29.5
2017-05-08T02:37:28.881Z,29.5
2017-05-08T02:38:30.032Z,29.5
2017-05-08T02:39:28.481Z,29.5
2017-05-08T02:40:29.310Z,29.5
2017-05-08T02:41:30.148Z,29.5
2017-05-08T02:42:30.274Z,29.5
2017-05-08T02:43:29.046Z,29.5
2017-05-08T02:44:30.270Z,29.5
2017-05-08T02:45:30.903Z,29.5
2017-05-08T02:46:30.474Z,29.5
2017-05-08T02:47:28.737Z,29.5
2017-05-08T02:48:30.520Z,29.5
2017-05-08T02:49:30.742Z,29.5
2017-05-08T02:50:29.063Z,29.5
2017-05-08T02:51:29.470Z,29.5
2017-05-08T02:52:29.038Z,29.5
2017-05-08T02:53:30.645Z,29.5
2017-05-08T02:54:30.715Z,29.5
2017-05-08T02:55:30.998Z,29.5
2017-05-08T02:56:32.045Z,29.5
2017-05-08T02:57:30.837Z,29.5
2017-05-08T02:58:30.970Z,29.5
2017-05-08T02:59:30.909Z,29.5
2017-05-08T03:00:29.489Z,29.5
2017-05-08T03:01:33.131Z,29.5
2017-05-08T03:02:29.459Z,29.5
2017-05-08T03:03:31.269Z,29.5
2017-05-08T03:04:31.341Z,29.5
2017-05-08T03:05:29.810Z,29.5
2017-05-08T03:06:29.847Z,29.5
2017-05-08T03:07:30.067Z,29.5
2017-05-08T03:08:31.459Z,29.5
2017-05-08T03:09:31.562Z,29.5
2017-05-08T03:10:29.908Z,29.5
2017-05-08T03:11:30.119Z,29.5
2017-05-08T03:12:31.658Z,29.5
2017-05-08T03:13:32.019Z,29.5
2017-05-08T03:14:30.129Z,29.5
2017-05-08T03:15:30.320Z,29.5
2017-05-08T03:16:30.407Z,29.5
2017-05-08T03:17:31.914Z,29.5
2017-05-08T03:18:30.353Z,29.5
2017-05-08T03:19:30.690Z,29.5
2017-05-08T03:20:30.598Z,29.5
2017-05-08T03:21:30.522Z,29.5
2017-05-08T03:22:32.323Z,29.5
2017-05-08T03:23:32.241Z,29.5
2017-05-08T03:24:32.453Z,29.5
2017-05-08T03:25:33.523Z,29.5
2017-05-08T03:26:30.834Z,29.5
2017-05-08T03:27:32.606Z,29.5
2017-05-08T03:28:31.706Z,29.5
2017-05-08T03:29:31.157Z,29.5
2017-05-08T03:30:32.747Z,29.5
2017-05-08T03:31:31.425Z,29.5
2017-05-08T03:32:31.342Z,29.5
2017-05-08T03:33:32.867Z,29.5
2017-05-08T03:34:32.968Z,29.5
2017-05-08T03:35:33.013Z,29.5
2017-05-08T03:36:31.921Z,29.5
2017-05-08T03:37:33.376Z,29.5
2017-05-08T03:38:33.024Z,29.5
2017-05-08T03:39:31.676Z,29.5
2017-05-08T03:40:33.201Z,29.5
2017-05-08T03:41:33.378Z,29.5
2017-05-08T03:42:33.969Z,29.5
2017-05-08T03:43:33.734Z,29.4
2017-05-08T03:44:33.448Z,29.5
2017-05-08T03:45:31.936Z,29.4
2017-05-08T03:46:33.492Z,29.5
2017-05-08T03:47:33.628Z,29.4
2017-05-08T03:48:33.567Z,29.5
2017-05-08T03:49:33.910Z,29.4
2017-05-08T03:50:32.235Z,29.5
2017-05-08T03:51:33.744Z,29.5
2017-05-08T03:52:32.248Z,29.5
2017-05-08T03:53:32.418Z,29.5
2017-05-08T03:54:33.881Z,29.5
2017-05-08T03:55:34.203Z,29.5
2017-05-08T03:56:34.626Z,29.5
2017-05-08T03:57:32.372Z,29.5
2017-05-08T03:58:34.109Z,29.5
2017-05-08T03:59:32.549Z,29.5
2017-05-08T04:00:32.608Z,29.5
2017-05-08T04:01:32.842Z,29.5
2017-05-08T04:02:32.615Z,29.5
2017-05-08T04:03:34.283Z,29.5
2017-05-08T04:04:32.655Z,29.5
2017-05-08T04:05:32.660Z,29.5
2017-05-08T04:06:32.761Z,29.5
2017-05-08T04:07:34.754Z,29.4
2017-05-08T04:08:33.018Z,29.5
2017-05-08T04:09:33.115Z,29.4
2017-05-08T04:10:34.642Z,29.5
2017-05-08T04:11:34.660Z,29.5
2017-05-08T04:12:34.685Z,29.5
2017-05-08T04:13:35.190Z,29.4
2017-05-08T04:14:34.872Z,29.5
2017-05-08T04:15:35.592Z,29.5
2017-05-08T04:16:33.320Z,29.5
2017-05-08T04:17:33.414Z,29.5
2017-05-08T04:18:35.173Z,29.5
2017-05-08T04:19:33.954Z,29.5
2017-05-08T04:20:33.605Z,29.5
2017-05-08T04:21:33.743Z,29.5
2017-05-08T04:22:35.273Z,29.5
2017-05-08T04:23:34.382Z,29.5
2017-05-08T04:24:35.329Z,29.5
2017-05-08T04:25:34.221Z,29.5
2017-05-08T04:26:35.363Z,29.5
2017-05-08T04:27:33.776Z,29.5
2017-05-08T04:28:33.883Z,29.5
2017-05-08T04:29:35.553Z,29.5
2017-05-08T04:30:35.666Z,29.5
2017-05-08T04:31:34.511Z,29.5
2017-05-08T04:32:35.846Z,29.3
2017-05-08T04:33:35.994Z,29.1
2017-05-08T04:34:35.983Z,28.9
2017-05-08T04:35:34.454Z,28.6
2017-05-08T04:36:36.612Z,28.4
2017-05-08T04:37:34.902Z,28.2
2017-05-08T04:38:36.139Z,28
2017-05-08T04:39:35.964Z,27.9
2017-05-08T04:40:36.295Z,27.7
2017-05-08T04:41:36.394Z,27.6
2017-05-08T04:42:36.465Z,27.5
2017-05-08T04:43:35.102Z,27.4
2017-05-08T04:44:35.580Z,27.3
2017-05-08T04:45:36.528Z,27.2
2017-05-08T04:46:36.484Z,27.1
2017-05-08T04:47:37.855Z,27.1
2017-05-08T04:48:36.543Z,27
2017-05-08T04:49:36.990Z,26.9
2017-05-08T04:50:36.611Z,26.9
2017-05-08T04:51:37.402Z,26.9
2017-05-08T04:52:35.213Z,26.8
2017-05-08T04:53:36.890Z,26.8
2017-05-08T04:54:36.059Z,26.8
2017-05-08T04:55:37.936Z,26.7
2017-05-08T04:56:35.412Z,26.7
2017-05-08T04:57:36.198Z,26.6
2017-05-08T04:58:37.694Z,26.6
2017-05-08T04:59:36.283Z,26.5
2017-05-08T05:00:37.818Z,26.5
2017-05-08T05:01:36.056Z,26.4
2017-05-08T05:02:37.442Z,26.4
2017-05-08T05:03:38.097Z,26.4
2017-05-08T05:04:35.787Z,26.4
2017-05-08T05:05:35.792Z,26.5
2017-05-08T05:06:36.047Z,26.5
2017-05-08T05:07:36.409Z,26.4
2017-05-08T05:08:35.967Z,26.4
2017-05-08T05:09:37.612Z,26.4
2017-05-08T05:10:36.038Z,26.4
2017-05-08T05:11:36.017Z,26.5
2017-05-08T05:12:37.838Z,26.5
2017-05-08T05:13:45.838Z,26.5
2017-05-08T05:14:37.954Z,26.6
2017-05-08T05:15:38.419Z,26.5
2017-05-08T05:16:38.538Z,26.6
2017-05-08T05:17:38.024Z,26.6
2017-05-08T05:18:37.208Z,26.6
2017-05-08T05:19:36.800Z,26.5
2017-05-08T05:20:42.535Z,26.5
2017-05-08T05:21:38.233Z,26.5
2017-05-08T05:22:36.642Z,26.5
2017-05-08T05:23:37.419Z,26.5
2017-05-08T05:24:38.515Z,26.4
2017-05-08T05:25:38.827Z,26.4
2017-05-08T05:26:40.520Z,26.4
2017-05-08T05:27:37.048Z,26.4
2017-05-08T05:28:37.753Z,26.4
2017-05-08T05:29:37.176Z,26.4
2017-05-08T05:30:37.296Z,26.4
2017-05-08T05:31:39.884Z,26.4
2017-05-08T05:32:38.738Z,26.4
2017-05-08T05:33:38.206Z,26.4
2017-05-08T05:34:38.165Z,26.4
2017-05-08T05:35:38.278Z,26.4
2017-05-08T05:36:37.767Z,26.4
2017-05-08T05:37:38.740Z,26.4
2017-05-08T05:38:37.919Z,26.4
2017-05-08T05:39:41.684Z,26.5
2017-05-08T05:40:39.837Z,26.4
2017-05-08T05:41:38.634Z,26.5
2017-05-08T05:42:38.777Z,26.4
2017-05-08T05:43:38.394Z,26.5
2017-05-08T05:44:38.087Z,26.4
2017-05-08T05:45:38.185Z,26.5
2017-05-08T05:46:39.780Z,26.5
2017-05-08T05:47:39.751Z,26.5
2017-05-08T05:48:41.113Z,26.5
2017-05-08T05:49:42.397Z,26.5
2017-05-08T05:50:40.048Z,26.5
2017-05-08T05:51:40.020Z,26.5
2017-05-08T05:52:39.128Z,26.5
2017-05-08T05:53:38.680Z,26.5
2017-05-08T05:54:38.718Z,26.4
2017-05-08T05:55:41.158Z,26.5
2017-05-08T05:56:41.493Z,26.5
2017-05-08T05:57:40.548Z,26.6
2017-05-08T05:58:39.481Z,26.6
2017-05-08T05:59:40.290Z,26.6
2017-05-08T06:00:40.820Z,26.7
2017-05-08T06:01:41.093Z,26.7
2017-05-08T06:02:49.569Z,26.7
2017-05-08T06:03:39.827Z,26.8
2017-05-08T06:04:41.962Z,26.8
2017-05-08T06:05:43.415Z,26.9
2017-05-08T06:06:40.922Z,26.9
2017-05-08T06:07:42.100Z,27
2017-05-08T06:08:43.363Z,27
2017-05-08T06:09:41.755Z,27
2017-05-08T06:10:41.847Z,27.1
2017-05-08T06:11:40.369Z,27.1
2017-05-08T06:12:42.396Z,27.2
2017-05-08T06:13:40.607Z,27.2
2017-05-08T06:14:41.366Z,27.3
2017-05-08T06:15:44.802Z,27.4
2017-05-08T06:16:40.940Z,27.3
2017-05-08T06:17:42.292Z,27.3
2017-05-08T06:18:43.874Z,27.3
2017-05-08T06:19:43.196Z,27.2
2017-05-08T06:20:41.647Z,27.2
2017-05-08T06:21:40.168Z,27.2
2017-05-08T06:22:40.723Z,27.2
2017-05-08T06:23:41.366Z,27.2
2017-05-08T06:24:40.303Z,27.2
2017-05-08T06:25:41.122Z,27.2
2017-05-08T06:26:44.500Z,27.3
2017-05-08T06:27:46.024Z,27.4
2017-05-08T06:28:45.049Z,27.4
2017-05-08T06:29:44.983Z,27.5
2017-05-08T06:30:42.950Z,27.5
2017-05-08T06:31:42.504Z,27.5
2017-05-08T06:32:44.156Z,27.5
2017-05-08T06:33:43.661Z,27.6
2017-05-08T06:34:42.920Z,27.6
2017-05-08T06:35:46.723Z,27.6
2017-05-08T06:36:42.585Z,27.6
2017-05-08T06:37:43.471Z,27.6
2017-05-08T06:38:43.924Z,27.7
2017-05-08T06:39:41.555Z,27.7
2017-05-08T06:40:44.592Z,27.7
2017-05-08T06:41:47.113Z,27.6
2017-05-08T06:42:44.042Z,27.5
2017-05-08T06:43:45.243Z,27.5
2017-05-08T06:44:45.077Z,27.4
2017-05-08T06:45:46.076Z,27.4
2017-05-08T06:46:43.007Z,27.3
2017-05-08T06:47:42.309Z,27.4
2017-05-08T06:48:42.139Z,27.4
2017-05-08T06:49:44.577Z,27.4
2017-05-08T06:50:47.661Z,27.5
2017-05-08T06:51:46.096Z,27.4
2017-05-08T06:52:45.933Z,27.3
2017-05-08T06:53:45.077Z,27.3
2017-05-08T06:54:42.691Z,27.2
2017-05-08T06:55:42.446Z,27.1
2017-05-08T06:56:45.265Z,27
2017-05-08T06:57:51.706Z,27
2017-05-08T06:58:48.709Z,27
2017-05-08T06:59:43.855Z,27
2017-05-08T07:00:43.180Z,27.1
2017-05-08T07:01:54.470Z,27.1
2017-05-08T07:02:45.681Z,27.2
2017-05-08T07:03:43.199Z,27.2
2017-05-08T07:04:44.321Z,27.2
2017-05-08T07:05:45.026Z,27.2
2017-05-08T07:07:49.319Z,27.2
2017-05-08T07:08:55.073Z,27.2
2017-05-08T07:11:57.371Z,27.1
2017-05-08T07:12:54.380Z,27.1
2017-05-08T07:13:48.671Z,27
2017-05-08T07:14:43.988Z,27
2017-05-08T07:15:46.283Z,27
2017-05-08T07:16:45.275Z,27
2017-05-08T07:17:46.562Z,27
2017-05-08T07:18:43.636Z,27
2017-05-08T07:19:44.619Z,27
2017-05-08T07:20:45.765Z,27
2017-05-08T07:21:45.409Z,27
2017-05-08T07:22:44.587Z,26.9
2017-05-08T07:23:45.370Z,26.9
2017-05-08T07:24:44.654Z,27
2017-05-08T07:25:45.923Z,27
2017-05-08T07:26:44.252Z,27
2017-05-08T07:27:44.883Z,27
2017-05-08T07:28:51.553Z,27
2017-05-08T07:29:46.099Z,27
2017-05-08T07:30:46.274Z,27
2017-05-08T07:31:45.649Z,27
2017-05-08T07:32:46.781Z,27
2017-05-08T07:33:48.026Z,27
2017-05-08T07:34:45.603Z,27
2017-05-08T07:35:46.919Z,27
2017-05-08T07:36:47.276Z,27
2017-05-08T07:37:46.045Z,27
2017-05-08T07:38:47.839Z,27
2017-05-08T07:39:49.405Z,27
2017-05-08T07:40:47.336Z,27
2017-05-08T07:41:51.450Z,27
2017-05-08T07:42:46.069Z,27
2017-05-08T07:43:48.107Z,27
2017-05-08T07:44:49.271Z,27
2017-05-08T07:45:47.317Z,27
2017-05-08T07:46:45.161Z,26.9
2017-05-08T07:47:49.998Z,27
2017-05-08T07:48:50.096Z,26.9
2017-05-08T07:49:45.997Z,26.9
2017-05-08T07:50:45.942Z,26.9
2017-05-08T07:51:52.093Z,27
2017-05-08T07:52:47.004Z,27
2017-05-08T07:53:46.507Z,27
2017-05-08T07:54:57.383Z,27
2017-05-08T07:55:56.296Z,27
2017-05-08T07:57:00.850Z,27.1
2017-05-08T07:57:47.309Z,27.1
2017-05-08T07:58:50.148Z,27.1
2017-05-08T07:59:45.125Z,27
2017-05-08T08:00:46.863Z,27
2017-05-08T08:01:45.153Z,27.1
2017-05-08T08:02:45.697Z,27.2
2017-05-08T08:03:51.481Z,27.2
2017-05-08T08:04:51.922Z,27.3
2017-05-08T08:05:49.186Z,27.3
2017-05-08T08:06:48.824Z,27.3
2017-05-08T08:07:47.544Z,27.3
2017-05-08T08:08:48.352Z,27.4
2017-05-08T08:14:04.702Z,27.5
2017-05-08T08:14:51.766Z,27.5
2017-05-08T08:15:49.181Z,27.6
2017-05-08T08:16:47.865Z,27.6
2017-05-08T08:17:53.836Z,27.6
2017-05-08T08:18:50.826Z,27.6
2017-05-08T08:19:53.250Z,27.7
2017-05-08T08:20:56.826Z,27.7
2017-05-08T08:21:53.192Z,27.6
2017-05-08T08:22:50.150Z,27.6
2017-05-08T08:23:51.327Z,27.6
2017-05-08T08:24:49.013Z,27.6
2017-05-08T08:25:52.161Z,27.6
2017-05-08T08:26:56.284Z,27.6
2017-05-08T08:27:58.327Z,27.7
2017-05-08T08:28:55.295Z,27.7
2017-05-08T08:29:54.850Z,27.8
2017-05-08T08:30:51.594Z,27.8
2017-05-08T08:31:51.383Z,27.8
2017-05-08T08:32:51.858Z,27.8
2017-05-08T08:33:46.869Z,27.8
2017-05-08T08:34:51.214Z,27.9
2017-05-08T08:35:50.011Z,27.9
2017-05-08T08:36:52.417Z,27.9
2017-05-08T08:37:53.274Z,27.9
2017-05-08T08:38:52.418Z,27.9
2017-05-08T08:39:56.170Z,27.8
2017-05-08T08:40:51.106Z,27.8
2017-05-08T08:41:49.665Z,27.8
2017-05-08T08:42:54.349Z,27.8
2017-05-08T08:43:54.404Z,27.8
2017-05-08T08:44:52.667Z,27.8
2017-05-08T08:46:02.584Z,27.8
2017-05-08T08:46:52.595Z,27.7
2017-05-08T08:47:51.185Z,27.6
2017-05-08T08:48:52.176Z,27.6
2017-05-08T08:49:48.891Z,27.6
2017-05-08T08:50:50.615Z,27.5
2017-05-08T08:51:56.688Z,27.5
2017-05-08T08:52:57.353Z,27.4
2017-05-08T08:53:58.503Z,27.4
2017-05-08T08:54:51.542Z,27.4
2017-05-08T08:55:54.346Z,27.4
2017-05-08T08:56:58.755Z,27.4
2017-05-08T08:57:56.493Z,27.4
2017-05-08T08:59:00.297Z,27.4
2017-05-08T08:59:57.087Z,27.4
2017-05-08T09:00:57.513Z,27.4
2017-05-08T09:02:02.837Z,27.5
2017-05-08T09:02:55.871Z,27.5
2017-05-08T09:03:53.935Z,27.5
2017-05-08T09:05:01.057Z,27.5
2017-05-08T09:05:59.507Z,27.6
2017-05-08T09:06:51.699Z,27.5
2017-05-08T09:07:55.245Z,27.5
2017-05-08T09:09:54.704Z,27.5
2017-05-08T09:10:55.568Z,27.5
2017-05-08T09:11:53.897Z,27.5
2017-05-08T09:12:59.762Z,27.6
2017-05-08T09:13:53.781Z,27.6
2017-05-08T09:16:07.545Z,27.5
2017-05-08T09:17:07.003Z,27.5
2017-05-08T09:18:05.084Z,27.5
2017-05-08T09:18:59.786Z,27.5
2017-05-08T09:20:09.506Z,27.5
2017-05-08T09:20:59.970Z,27.5
2017-05-08T09:22:03.145Z,27.5
2017-05-08T09:23:06.536Z,27.5
2017-05-08T09:25:04.303Z,27.5
2017-05-08T09:25:59.269Z,27.5
2017-05-08T09:26:54.611Z,27.4
2017-05-08T09:28:08.913Z,27.4
2017-05-08T09:28:57.472Z,27.3
2017-05-08T09:29:55.632Z,27.2
2017-05-08T09:30:53.333Z,27.3
2017-05-08T09:31:57.346Z,27.2
2017-05-08T09:32:56.321Z,27.2
2017-05-08T09:33:55.959Z,27.2
2017-05-08T09:34:56.551Z,27.2
2017-05-08T09:35:55.145Z,27.2
2017-05-08T09:36:53.430Z,27.2
2017-05-08T09:37:56.934Z,27.2
2017-05-08T09:38:56.073Z,27.2
2017-05-08T09:39:53.311Z,27.3
2017-05-08T09:40:59.592Z,27.3
2017-05-08T09:41:59.791Z,27.3
2017-05-08T09:42:57.244Z,27.4
2017-05-08T09:43:55.318Z,27.4
2017-05-08T09:44:57.189Z,27.4
2017-05-08T09:45:57.180Z,27.4
2017-05-08T09:46:56.142Z,27.5
2017-05-08T09:47:57.586Z,27.5
2017-05-08T09:48:57.600Z,27.5
2017-05-08T09:49:59.217Z,27.5
2017-05-08T09:51:00.156Z,27.6
2017-05-08T09:53:00.621Z,27.7
2017-05-08T09:54:01.473Z,27.8
2017-05-08T09:54:55.966Z,27.9
2017-05-08T09:55:52.117Z,28
2017-05-08T09:56:58.531Z,28
2017-05-08T09:57:59.286Z,28
2017-05-08T10:00:16.823Z,28
2017-05-08T10:07:04.037Z,27.6
2017-05-08T10:08:01.376Z,27.5
2017-05-08T10:09:00.807Z,27.5
2017-05-08T10:10:01.065Z,27.5
2017-05-08T10:11:00.584Z,27.5
2017-05-08T10:11:57.777Z,27.5
2017-05-08T10:12:56.606Z,27.5
2017-05-08T10:13:56.256Z,27.4
2017-05-08T10:15:00.714Z,27.4
2017-05-08T10:15:55.435Z,27.4
2017-05-08T10:16:57.315Z,27.4
2017-05-08T10:17:55.760Z,27.4
2017-05-08T10:18:55.423Z,27.5
2017-05-08T10:19:56.809Z,27.5
2017-05-08T10:20:54.739Z,27.5
2017-05-08T10:22:00.690Z,27.4
2017-05-08T10:22:56.009Z,27.4
2017-05-08T10:23:57.173Z,27.4
2017-05-08T10:25:03.893Z,27.4
2017-05-08T10:26:06.269Z,27.4
2017-05-08T10:28:07.172Z,27.4
2017-05-08T10:34:11.774Z,27.1
2017-05-08T10:35:15.268Z,27.1
2017-05-08T10:37:03.401Z,27
2017-05-08T10:38:08.361Z,27
2017-05-08T10:39:00.845Z,27
2017-05-08T10:40:01.563Z,27
2017-05-08T10:41:02.612Z,27
2017-05-08T10:41:58.427Z,27
2017-05-08T10:42:54.938Z,27
2017-05-08T10:43:56.181Z,27
2017-05-08T10:44:54.971Z,27
2017-05-08T10:46:08.618Z,27
2017-05-08T10:46:59.705Z,27
2017-05-08T10:47:57.497Z,27.1
2017-05-08T10:48:56.834Z,27.1
2017-05-08T10:49:54.514Z,27.2
2017-05-08T10:50:56.897Z,27.2
2017-05-08T10:51:55.812Z,27.3
2017-05-08T10:52:57.393Z,27.3
2017-05-08T10:53:59.549Z,27.3
2017-05-08T10:55:02.560Z,27.4
2017-05-08T10:55:57.279Z,27.3
2017-05-08T10:57:00.654Z,27.2
2017-05-08T10:58:03.069Z,27.2
2017-05-08T10:58:59.437Z,27.2
2017-05-08T10:59:58.454Z,27.3
2017-05-08T11:00:58.746Z,27.3
2017-05-08T11:01:54.538Z,27.4
2017-05-08T11:02:59.545Z,27.4
2017-05-08T11:04:06.352Z,27.3
2017-05-08T11:04:57.852Z,27.3
2017-05-08T11:05:57.764Z,27.4
2017-05-08T11:06:58.471Z,27.4
2017-05-08T11:07:59.609Z,27.5
2017-05-08T11:08:58.961Z,27.5
2017-05-08T11:09:57.781Z,27.5
2017-05-08T11:10:59.497Z,27.5
2017-05-08T11:11:58.049Z,27.4
2017-05-08T11:12:58.429Z,27.4
2017-05-08T11:14:02.887Z,27.4
2017-05-08T11:15:00.380Z,27.5
2017-05-08T11:16:02.730Z,27.4
2017-05-08T11:17:00.707Z,27.3
2017-05-08T11:17:57.923Z,27.3
2017-05-08T11:18:59.113Z,27.2
2017-05-08T11:19:57.922Z,27.1
2017-05-08T11:20:58.654Z,27.1
2017-05-08T11:21:58.190Z,27.1
2017-05-08T11:22:59.145Z,27
2017-05-08T11:23:57.119Z,26.9
2017-05-08T11:25:00.561Z,26.9
2017-05-08T11:25:58.682Z,26.8
2017-05-08T11:27:02.497Z,26.8
2017-05-08T11:28:06.709Z,26.7
2017-05-08T11:29:06.637Z,26.7
2017-05-08T11:29:57.956Z,26.6
2017-05-08T11:30:59.655Z,26.6
2017-05-08T11:32:01.528Z,26.6
2017-05-08T11:33:02.331Z,26.6
2017-05-08T11:33:57.530Z,26.7
2017-05-08T11:34:58.385Z,26.7
2017-05-08T11:36:04.477Z,26.7
2017-05-08T11:37:01.463Z,26.7
2017-05-08T11:37:58.981Z,26.7
2017-05-08T11:39:00.933Z,26.7
2017-05-08T11:39:59.813Z,26.7
2017-05-08T11:40:57.340Z,26.7
2017-05-08T11:41:58.147Z,26.7
2017-05-08T11:43:05.276Z,26.7
2017-05-08T11:43:57.457Z,26.6
2017-05-08T11:45:04.175Z,26.6
2017-05-08T11:45:59.856Z,26.6
2017-05-08T11:47:00.126Z,26.7
2017-05-08T11:48:03.254Z,26.8
2017-05-08T11:49:01.961Z,26.8
2017-05-08T11:50:02.540Z,26.9
2017-05-08T11:50:59.965Z,26.9
2017-05-08T11:52:01.226Z,26.9
2017-05-08T11:53:02.741Z,26.9
2017-05-08T11:53:57.505Z,26.9
2017-05-08T11:55:00.244Z,26.9
2017-05-08T11:55:58.102Z,26.9
2017-05-08T11:57:02.408Z,26.9
2017-05-08T11:58:02.841Z,26.8
2017-05-08T11:59:00.818Z,26.8
2017-05-08T11:59:59.112Z,26.8
2017-05-08T12:00:59.809Z,26.8
2017-05-08T12:02:01.594Z,26.9
2017-05-08T12:03:05.749Z,26.9
2017-05-08T12:04:03.950Z,26.9
2017-05-08T12:05:01.037Z,26.9
2017-05-08T12:06:03.297Z,26.9
2017-05-08T12:07:02.012Z,27
2017-05-08T12:08:08.099Z,26.9
2017-05-08T12:09:03.920Z,26.9
2017-05-08T12:10:03.202Z,26.9
2017-05-08T12:11:02.930Z,26.8
2017-05-08T12:11:59.726Z,26.8
2017-05-08T12:13:01.646Z,26.8
2017-05-08T12:14:03.413Z,26.8
2017-05-08T12:15:09.225Z,26.9
2017-05-08T12:16:10.579Z,26.9
2017-05-08T12:17:03.408Z,26.9
2017-05-08T12:18:05.493Z,26.8
2017-05-08T12:19:06.141Z,26.9
2017-05-08T12:20:05.041Z,26.9
2017-05-08T12:21:07.348Z,26.9
2017-05-08T12:22:06.603Z,26.8
2017-05-08T12:23:07.995Z,26.8
2017-05-08T12:24:01.980Z,26.8
2017-05-08T12:24:59.129Z,26.8
2017-05-08T12:26:01.061Z,26.7
2017-05-08T12:27:02.446Z,26.7
2017-05-08T12:28:03.921Z,26.7
2017-05-08T12:29:04.442Z,26.7
2017-05-08T12:30:06.271Z,26.7
2017-05-08T12:31:04.950Z,26.8
2017-05-08T12:32:03.450Z,26.8
2017-05-08T12:33:15.799Z,26.9
2017-05-08T12:34:06.579Z,26.9
2017-05-08T12:35:07.532Z,27
2017-05-08T12:36:05.250Z,27
2017-05-08T12:37:04.544Z,27
2017-05-08T12:38:03.530Z,27.1
2017-05-08T12:39:08.469Z,27
2017-05-08T12:40:05.818Z,27
2017-05-08T12:41:04.084Z,27
2017-05-08T12:42:05.904Z,26.9
2017-05-08T12:43:07.864Z,26.9
2017-05-08T12:44:06.494Z,26.9
2017-05-08T12:45:02.364Z,26.9
2017-05-08T12:46:03.541Z,26.9
2017-05-08T12:47:04.881Z,26.9
2017-05-08T12:48:01.694Z,26.9
2017-05-08T12:49:06.271Z,26.9
2017-05-08T12:50:05.121Z,26.8
2017-05-08T12:51:07.568Z,26.8
2017-05-08T12:52:06.159Z,26.8
2017-05-08T12:53:07.858Z,26.7
2017-05-08T12:54:11.474Z,26.7
2017-05-08T12:55:06.926Z,26.7
2017-05-08T12:56:12.595Z,26.7
2017-05-08T12:57:08.152Z,26.7
2017-05-08T12:58:06.986Z,26.6
2017-05-08T12:59:03.151Z,26.7
2017-05-08T13:00:08.483Z,26.7
2017-05-08T13:01:12.059Z,26.7
2017-05-08T13:02:10.305Z,26.6
2017-05-08T13:03:09.595Z,26.6
2017-05-08T13:04:06.834Z,26.5
2017-05-08T13:05:03.436Z,26.5
2017-05-08T13:06:05.173Z,26.5
2017-05-08T13:07:05.168Z,26.5
2017-05-08T13:08:05.903Z,26.5
2017-05-08T13:09:11.397Z,26.5
2017-05-08T13:10:06.448Z,26.6
2017-05-08T13:11:03.650Z,26.6
2017-05-08T13:12:07.539Z,26.7
2017-05-08T13:13:10.872Z,26.7
2017-05-08T13:14:09.264Z,26.7
2017-05-08T13:15:10.692Z,26.7
2017-05-08T13:16:08.023Z,26.7
2017-05-08T13:17:09.983Z,26.7
2017-05-08T13:18:14.789Z,26.6
2017-05-08T13:19:07.471Z,26.6
2017-05-08T13:20:07.062Z,26.6
2017-05-08T13:21:04.680Z,26.5
2017-05-08T13:22:06.934Z,26.5
2017-05-08T13:23:09.604Z,26.5
2017-05-08T13:24:12.409Z,26.5
2017-05-08T13:25:12.391Z,26.5
2017-05-08T13:26:07.732Z,26.4
2017-05-08T13:27:08.555Z,26.5
2017-05-08T13:28:10.456Z,26.4
2017-05-08T13:29:09.607Z,26.4
2017-05-08T13:30:11.436Z,26.4
2017-05-08T13:31:07.684Z,26.4
2017-05-08T13:32:11.516Z,26.4
2017-05-08T13:33:09.087Z,26.4
2017-05-08T13:34:05.265Z,26.5
2017-05-08T13:35:09.321Z,26.5
2017-05-08T13:36:07.399Z,26.6
2017-05-08T13:37:12.097Z,26.6
2017-05-08T13:38:10.141Z,26.7
2017-05-08T13:39:10.530Z,26.7
2017-05-08T13:40:15.487Z,26.7
2017-05-08T13:41:06.176Z,26.8
2017-05-08T13:42:11.253Z,26.8
2017-05-08T13:43:07.451Z,26.8
2017-05-08T13:44:13.894Z,26.8
2017-05-08T13:45:03.839Z,26.8
2017-05-08T13:46:05.205Z,26.8
2017-05-08T13:47:06.686Z,26.8
2017-05-08T13:48:06.894Z,26.8
2017-05-08T13:49:09.622Z,26.9